createdAt,value
2023-01-11T00:00:41.713Z,6.82
2023-01-11T00:03:10.963Z,6.82
2023-01-11T00:05:42.009Z,6.83
2023-01-11T00:08:12.822Z,6.86
2023-01-11T00:10:42.416Z,6.88
2023-01-11T00:13:13.074Z,6.88
2023-01-11T00:15:43.743Z,6.89
2023-01-11T00:18:13.808Z,6.90
2023-01-11T00:20:44.639Z,6.91
2023-01-11T00:23:13.691Z,6.91
2023-01-11T00:25:43.804Z,6.95
2023-01-11T00:28:13.799Z,6.93
2023-01-11T00:30:43.930Z,6.96
2023-01-11T00:33:14.028Z,6.98
2023-01-11T00:35:45.601Z,6.97
2023-01-11T00:38:34.482Z,6.97
2023-01-11T00:41:24.839Z,7.00
2023-01-11T00:44:11.675Z,7.02
2023-01-11T00:46:55.207Z,7.01
2023-01-11T00:49:24.578Z,7.03
2023-01-11T00:51:56.079Z,7.02
2023-01-11T00:54:24.747Z,7.02
2023-01-11T00:56:54.416Z,7.04
2023-01-11T00:59:24.205Z,7.04
2023-01-11T01:01:54.304Z,7.06
2023-01-11T01:04:23.439Z,7.08
2023-01-11T01:06:55.045Z,7.06
2023-01-11T01:09:25.101Z,7.09
2023-01-11T01:11:55.842Z,7.11
2023-01-11T01:14:29.063Z,7.14
2023-01-11T01:17:02.160Z,7.15
2023-01-11T01:19:32.721Z,7.16
2023-01-11T01:22:03.803Z,7.17
2023-01-11T01:24:34.134Z,7.19
2023-01-11T01:27:04.208Z,7.20
2023-01-11T01:29:33.699Z,7.23
2023-01-11T01:32:03.847Z,7.25
2023-01-11T01:34:32.823Z,7.28
2023-01-11T01:37:04.326Z,7.29
2023-01-11T01:39:34.585Z,7.29
2023-01-11T01:42:04.812Z,7.32
2023-01-11T01:45:08.871Z,7.36
2023-01-11T01:47:49.852Z,7.35
2023-01-11T01:50:27.910Z,7.37
2023-01-11T01:53:06.365Z,7.39
2023-01-11T01:55:43.264Z,7.41
2023-01-11T01:58:18.054Z,7.41
2023-01-11T02:00:48.903Z,7.43
2023-01-11T02:03:24.216Z,7.44
2023-01-11T02:05:55.305Z,7.45
2023-01-11T02:08:36.881Z,7.48
2023-01-11T02:11:28.879Z,7.48
2023-01-11T02:13:59.632Z,7.49
2023-01-11T02:16:28.718Z,7.50
2023-01-11T02:19:00.994Z,7.51
2023-01-11T02:22:02.230Z,7.53
2023-01-11T02:25:24.372Z,7.58
2023-01-11T02:28:13.359Z,7.57
2023-01-11T02:30:55.670Z,7.59
2023-01-11T02:33:34.277Z,7.60
2023-01-11T02:36:19.769Z,7.62
2023-01-11T02:38:57.321Z,7.63
2023-01-11T02:41:57.262Z,7.64
2023-01-11T02:44:56.597Z,7.64
2023-01-11T02:47:38.255Z,7.66
2023-01-11T02:50:20.131Z,7.66
2023-01-11T02:53:00.529Z,7.71
2023-01-11T02:55:38.927Z,7.69
2023-01-11T02:58:13.702Z,7.73
2023-01-11T03:00:46.646Z,7.74
2023-01-11T03:03:21.923Z,7.74
2023-01-11T03:05:56.762Z,7.76
2023-01-11T03:09:18.513Z,7.79
2023-01-11T03:12:33.104Z,7.82
2023-01-11T03:15:23.483Z,7.83
2023-01-11T03:18:08.792Z,7.85
2023-01-11T03:20:46.592Z,7.87
2023-01-11T03:23:26.219Z,7.88
2023-01-11T03:26:05.960Z,7.91
2023-01-11T03:28:50.201Z,7.90
2023-01-11T03:31:31.910Z,7.93
2023-01-11T03:34:15.309Z,7.92
2023-01-11T03:36:51.437Z,7.95
2023-01-11T03:39:28.922Z,7.96
2023-01-11T03:42:03.274Z,7.97
2023-01-11T03:44:41.653Z,7.97
2023-01-11T03:47:16.885Z,7.98
2023-01-11T03:49:53.645Z,7.97
2023-01-11T03:52:33.949Z,7.98
2023-01-11T03:55:09.316Z,7.99
2023-01-11T03:57:44.037Z,7.99
2023-01-11T04:00:14.518Z,8.00
2023-01-11T04:02:45.601Z,7.99
2023-01-11T04:05:17.236Z,7.99
2023-01-11T04:07:47.303Z,8.00
2023-01-11T04:10:18.233Z,7.99
2023-01-11T04:12:49.971Z,7.99
2023-01-11T04:15:19.906Z,7.99
2023-01-11T04:17:48.838Z,8.00
2023-01-11T04:20:20.569Z,8.01
2023-01-11T04:22:51.476Z,8.02
2023-01-11T04:25:20.431Z,8.02
2023-01-11T04:27:50.311Z,8.01
2023-01-11T04:30:21.139Z,8.00
2023-01-11T04:32:51.046Z,8.02
2023-01-11T04:35:21.499Z,8.03
2023-01-11T04:37:51.398Z,8.05
2023-01-11T04:40:22.503Z,8.05
2023-01-11T04:42:50.683Z,8.05
2023-01-11T04:45:20.791Z,8.05
2023-01-11T04:47:57.132Z,8.09
2023-01-11T04:50:28.886Z,8.09
2023-01-11T04:53:00.886Z,8.13
2023-01-11T04:55:31.546Z,8.10
2023-01-11T04:58:01.637Z,8.13
2023-01-11T05:00:31.251Z,8.13
2023-01-11T05:03:02.431Z,8.13
2023-01-11T05:05:34.708Z,8.14
2023-01-11T05:08:04.203Z,8.14
2023-01-11T05:10:35.532Z,8.14
2023-01-11T05:13:05.999Z,8.17
2023-01-11T05:15:38.159Z,8.16
2023-01-11T05:18:08.259Z,8.16
2023-01-11T05:20:40.168Z,8.18
2023-01-11T05:23:10.143Z,8.18
2023-01-11T05:25:40.156Z,8.18
2023-01-11T05:28:10.696Z,8.16
2023-01-11T05:30:40.612Z,8.19
2023-01-11T05:33:10.105Z,8.18
2023-01-11T05:35:40.862Z,8.21
2023-01-11T05:38:10.769Z,8.21
2023-01-11T05:40:40.847Z,8.23
2023-01-11T05:43:10.326Z,8.24
2023-01-11T05:45:40.458Z,8.27
2023-01-11T05:48:09.926Z,8.26
2023-01-11T05:50:41.052Z,8.29
2023-01-11T05:53:12.488Z,8.29
2023-01-11T05:55:53.630Z,8.28
2023-01-11T05:58:24.027Z,8.32
2023-01-11T06:00:55.486Z,8.32
2023-01-11T06:03:29.011Z,8.31
2023-01-11T06:06:02.727Z,8.29
2023-01-11T06:08:32.215Z,8.30
2023-01-11T06:11:01.356Z,8.32
2023-01-11T06:13:32.112Z,8.33
2023-01-11T06:16:04.339Z,8.34
2023-01-11T06:18:35.953Z,8.36
2023-01-11T06:21:07.379Z,8.37
2023-01-11T06:23:40.221Z,8.36
2023-01-11T06:26:13.196Z,8.37
2023-01-11T06:28:43.594Z,8.35
2023-01-11T06:31:16.166Z,8.35
2023-01-11T06:33:47.679Z,8.39
2023-01-11T06:36:19.364Z,8.40
2023-01-11T06:38:49.997Z,8.42
2023-01-11T06:41:20.417Z,8.42
2023-01-11T06:43:52.204Z,8.41
2023-01-11T06:46:21.926Z,8.39
2023-01-11T06:48:51.346Z,8.42
2023-01-11T06:51:22.688Z,8.42
2023-01-11T06:53:53.824Z,8.45
2023-01-11T06:56:24.385Z,8.43
2023-01-11T06:58:53.920Z,8.44
2023-01-11T07:01:25.711Z,8.46
2023-01-11T07:03:55.797Z,8.46
2023-01-11T07:06:27.137Z,8.46
2023-01-11T07:08:56.793Z,8.48
2023-01-11T07:11:26.790Z,8.48
2023-01-11T07:13:55.838Z,8.50
2023-01-11T07:16:26.376Z,8.49
2023-01-11T07:18:55.884Z,8.50
2023-01-11T07:21:26.293Z,8.51
2023-01-11T07:23:56.925Z,8.49
2023-01-11T07:26:27.115Z,8.49
2023-01-11T07:28:56.819Z,8.51
2023-01-11T07:31:26.432Z,8.54
2023-01-11T07:33:56.596Z,8.52
2023-01-11T07:36:29.984Z,8.52
2023-01-11T07:38:58.890Z,8.53
2023-01-11T07:41:45.821Z,8.54
2023-01-11T07:44:16.010Z,8.58
2023-01-11T07:46:46.197Z,8.58
2023-01-11T07:49:14.691Z,8.58
2023-01-11T07:51:47.299Z,8.59
2023-01-11T07:54:17.037Z,8.58
2023-01-11T07:56:46.419Z,8.59
2023-01-11T07:59:16.931Z,8.61
2023-01-11T08:01:46.893Z,8.62
2023-01-11T08:04:16.201Z,8.62
2023-01-11T08:06:48.090Z,8.62
2023-01-11T08:09:17.080Z,8.65
2023-01-11T08:12:05.053Z,8.63
2023-01-11T08:14:41.240Z,8.66
2023-01-11T08:17:13.433Z,8.66
2023-01-11T08:19:43.832Z,8.66
2023-01-11T08:22:13.667Z,8.66
2023-01-11T08:24:44.699Z,8.69
2023-01-11T08:27:14.205Z,8.65
2023-01-11T08:29:44.342Z,8.65
2023-01-11T08:32:13.975Z,8.67
2023-01-11T08:34:43.824Z,8.70
2023-01-11T08:37:14.567Z,8.73
2023-01-11T08:39:44.021Z,8.76
2023-01-11T08:42:14.031Z,8.76
2023-01-11T08:44:43.590Z,8.77
2023-01-11T08:47:12.115Z,8.79
2023-01-11T08:49:43.671Z,8.79
2023-01-11T08:52:16.373Z,8.81
2023-01-11T08:54:45.996Z,8.82
2023-01-11T08:57:16.682Z,8.84
2023-01-11T08:59:46.361Z,8.85
2023-01-11T09:02:17.082Z,8.86
2023-01-11T09:04:47.302Z,8.85
2023-01-11T09:07:18.349Z,8.90
2023-01-11T09:09:47.949Z,8.89
2023-01-11T09:12:17.470Z,8.93
2023-01-11T09:14:47.378Z,8.92
2023-01-11T09:17:16.857Z,8.93
2023-01-11T09:19:46.700Z,8.98
2023-01-11T09:22:17.272Z,8.97
2023-01-11T09:24:47.866Z,9.00
2023-01-11T09:27:16.948Z,9.00
2023-01-11T09:29:47.200Z,9.01
2023-01-11T09:32:18.284Z,9.02
2023-01-11T09:34:49.647Z,9.05
2023-01-11T09:37:23.229Z,9.09
2023-01-11T09:39:52.881Z,9.11
2023-01-11T09:42:52.101Z,9.14
2023-01-11T09:45:24.857Z,9.15
2023-01-11T09:48:03.535Z,9.17
2023-01-11T09:50:40.163Z,9.18
2023-01-11T09:53:22.477Z,9.20
2023-01-11T09:55:54.242Z,9.22
2023-01-11T09:58:53.547Z,9.22
2023-01-11T10:01:33.828Z,9.23
2023-01-11T10:04:39.542Z,9.24
2023-01-11T10:07:32.083Z,9.25
2023-01-11T10:18:43.473Z,9.31
2023-01-11T10:19:40.619Z,9.33
2023-01-11T10:22:18.656Z,9.37
2023-01-11T10:24:51.813Z,9.40
2023-01-11T10:27:35.789Z,9.42
2023-01-11T10:30:33.767Z,9.44
2023-01-11T10:33:19.237Z,9.48
2023-01-11T10:36:14.854Z,9.50
2023-01-11T10:39:03.297Z,9.55
2023-01-11T10:41:47.250Z,9.59
2023-01-11T10:44:32.327Z,9.63
2023-01-11T10:47:05.069Z,9.67
2023-01-11T10:49:50.089Z,9.71
2023-01-11T10:52:37.596Z,9.73
2023-01-11T10:55:16.046Z,9.77
2023-01-11T10:58:25.552Z,9.81
2023-01-11T11:01:17.101Z,9.77
2023-01-11T11:04:08.269Z,9.80
2023-01-11T11:06:48.821Z,9.81
2023-01-11T11:09:28.794Z,9.80
2023-01-11T11:12:06.013Z,9.86
2023-01-11T11:14:45.519Z,9.90
2023-01-11T11:17:25.994Z,9.94
2023-01-11T11:19:55.624Z,9.97
2023-01-11T11:22:24.665Z,9.98
2023-01-11T11:25:04.121Z,9.98
2023-01-11T11:27:43.337Z,10.00
2023-01-11T11:30:16.048Z,10.00
2023-01-11T11:32:57.794Z,10.03
2023-01-11T11:35:40.436Z,10.03
2023-01-11T11:38:23.232Z,9.99
2023-01-11T11:41:00.750Z,10.01
2023-01-11T11:43:32.084Z,10.01
2023-01-11T11:46:04.078Z,10.02
2023-01-11T11:48:37.092Z,9.99
2023-01-11T11:51:16.229Z,9.97
2023-01-11T11:53:54.187Z,10.01
2023-01-11T11:56:30.588Z,10.02
2023-01-11T11:59:07.508Z,10.04
2023-01-11T12:01:40.258Z,10.09
2023-01-11T12:04:18.842Z,10.10
2023-01-11T12:06:54.842Z,10.13
2023-01-11T12:09:32.597Z,10.07
2023-01-11T12:12:03.357Z,10.09
2023-01-11T12:14:35.510Z,10.09
2023-01-11T12:17:27.044Z,10.04
2023-01-11T12:19:58.367Z,10.01
2023-01-11T12:22:30.816Z,10.01
2023-01-11T12:25:23.160Z,10.05
2023-01-11T12:28:04.243Z,10.07
2023-01-11T12:30:46.091Z,10.05
2023-01-11T12:33:40.334Z,10.07
2023-01-11T12:36:22.563Z,10.10
2023-01-11T12:39:05.968Z,10.06
2023-01-11T12:42:07.315Z,10.08
2023-01-11T12:44:57.633Z,10.09
2023-01-11T12:48:09.075Z,10.07
2023-01-11T12:51:00.420Z,10.07
2023-01-11T12:53:57.337Z,10.08
2023-01-11T12:56:51.155Z,10.07
2023-01-11T12:59:45.274Z,10.10
2023-01-11T13:02:38.592Z,10.05
2023-01-11T13:05:25.194Z,10.06
2023-01-11T13:08:12.289Z,10.02
2023-01-11T13:10:59.952Z,10.05
2023-01-11T13:13:44.301Z,10.07
2023-01-11T13:16:26.366Z,10.07
2023-01-11T13:19:04.948Z,10.08
2023-01-11T13:21:43.394Z,10.09
2023-01-11T13:24:19.457Z,10.09
2023-01-11T13:26:52.817Z,10.07
2023-01-11T13:29:31.250Z,10.05
2023-01-11T13:32:05.612Z,10.07
2023-01-11T13:34:42.435Z,10.11
2023-01-11T13:37:21.479Z,10.09
2023-01-11T13:40:00.485Z,10.05
2023-01-11T13:42:39.617Z,10.02
2023-01-11T13:45:22.540Z,10.05
2023-01-11T13:47:58.146Z,10.02
2023-01-11T13:50:33.854Z,10.01
2023-01-11T13:53:16.672Z,9.96
2023-01-11T13:55:58.902Z,9.96
2023-01-11T13:58:39.860Z,9.96
2023-01-11T14:01:16.013Z,9.98
2023-01-11T14:03:53.155Z,9.93
2023-01-11T14:06:45.678Z,9.93
2023-01-11T14:09:54.441Z,9.93
2023-01-11T14:12:42.290Z,9.95
2023-01-11T14:15:29.305Z,9.91
2023-01-11T14:18:30.524Z,9.81
2023-01-11T14:21:13.881Z,9.81
2023-01-11T14:23:51.319Z,9.83
2023-01-11T14:26:59.659Z,9.81
2023-01-11T14:30:00.132Z,9.81
2023-01-11T14:32:59.641Z,9.81
2023-01-11T14:36:13.756Z,9.80
2023-01-11T14:39:46.004Z,9.74
2023-01-11T14:42:58.232Z,9.72
2023-01-11T14:46:08.498Z,9.72
2023-01-11T14:48:52.843Z,9.68
2023-01-11T14:51:34.031Z,9.64
2023-01-11T14:54:11.187Z,9.65
2023-01-11T14:56:55.027Z,9.60
2023-01-11T14:59:42.287Z,9.60
2023-01-11T15:02:31.092Z,9.56
2023-01-11T15:05:34.526Z,9.54
2023-01-11T15:08:25.087Z,9.48
2023-01-11T15:10:59.846Z,9.50
2023-01-11T15:13:33.834Z,9.43
2023-01-11T15:16:29.195Z,9.37
2023-01-11T15:18:58.897Z,9.37
2023-01-11T15:21:30.837Z,9.37
2023-01-11T15:24:01.775Z,9.36
2023-01-11T15:26:30.788Z,9.32
2023-01-11T15:29:02.499Z,9.28
2023-01-11T15:31:44.694Z,9.26
2023-01-11T15:34:26.331Z,9.22
2023-01-11T15:37:39.891Z,9.20
2023-01-11T15:40:39.979Z,9.14
2023-01-11T15:43:56.463Z,9.09
2023-01-11T15:47:16.895Z,9.03
2023-01-11T15:50:43.560Z,8.96
2023-01-11T15:54:05.808Z,8.93
2023-01-11T15:57:25.028Z,8.89
2023-01-11T16:00:35.789Z,8.84
2023-01-11T16:03:46.983Z,8.78
2023-01-11T16:06:44.622Z,8.74
2023-01-11T16:09:59.414Z,8.71
2023-01-11T16:13:12.537Z,8.65
2023-01-11T16:15:59.987Z,8.58
2023-01-11T16:18:38.982Z,8.54
2023-01-11T16:21:14.951Z,8.52
2023-01-11T16:23:44.412Z,8.46
2023-01-11T16:26:21.285Z,8.47
2023-01-11T16:28:56.182Z,8.47
2023-01-11T16:31:26.624Z,8.47
2023-01-11T16:33:57.519Z,8.43
2023-01-11T16:36:29.255Z,8.44
2023-01-11T16:39:06.925Z,8.45
2023-01-11T16:41:47.975Z,8.47
2023-01-11T16:44:35.521Z,8.47
2023-01-11T16:47:13.337Z,8.46
2023-01-11T16:49:49.455Z,8.45
2023-01-11T16:52:50.063Z,8.44
2023-01-11T16:55:27.164Z,8.42
2023-01-11T16:58:01.348Z,8.40
2023-01-11T17:00:38.045Z,8.41
2023-01-11T17:03:21.228Z,8.39
2023-01-11T17:06:19.550Z,8.39
2023-01-11T17:08:52.849Z,8.40
2023-01-11T17:11:33.744Z,8.33
2023-01-11T17:14:39.216Z,8.31
2023-01-11T17:17:13.534Z,8.31
2023-01-11T17:19:48.112Z,8.30
2023-01-11T17:22:22.972Z,8.29
2023-01-11T17:24:58.235Z,8.28
2023-01-11T17:27:34.046Z,8.22
2023-01-11T17:30:08.521Z,8.27
2023-01-11T17:32:45.037Z,8.26
2023-01-11T17:35:20.218Z,8.26
2023-01-11T17:37:53.270Z,8.25
2023-01-11T17:40:27.504Z,8.26
2023-01-11T17:43:22.012Z,8.27
2023-01-11T17:45:56.030Z,8.28
2023-01-11T17:48:29.783Z,8.27
2023-01-11T17:51:01.811Z,8.24
2023-01-11T17:53:34.493Z,8.22
2023-01-11T17:56:07.845Z,8.22
2023-01-11T17:58:38.838Z,8.25
2023-01-11T18:01:21.909Z,8.27
2023-01-11T18:03:57.058Z,8.28
2023-01-11T18:06:36.294Z,8.30
2023-01-11T18:09:10.019Z,8.33
2023-01-11T18:11:44.080Z,8.31
2023-01-11T18:14:22.824Z,8.32
2023-01-11T18:17:00.738Z,8.31
2023-01-11T18:19:39.486Z,8.32
2023-01-11T18:22:30.876Z,8.31
2023-01-11T18:25:02.573Z,8.28
2023-01-11T18:27:34.296Z,8.26
2023-01-11T18:30:07.949Z,8.26
2023-01-11T18:32:43.190Z,8.24
2023-01-11T18:35:19.251Z,8.19
2023-01-11T18:37:48.105Z,8.12
2023-01-11T18:40:19.243Z,8.14
2023-01-11T18:42:52.501Z,8.07
2023-01-11T18:45:22.535Z,8.04
2023-01-11T18:47:53.348Z,8.03
2023-01-11T18:50:26.602Z,8.04
2023-01-11T18:52:55.744Z,8.02
2023-01-11T18:55:25.454Z,8.00
2023-01-11T18:57:58.251Z,7.95
2023-01-11T19:00:28.186Z,7.97
2023-01-11T19:02:57.138Z,7.97
2023-01-11T19:05:27.547Z,7.98
2023-01-11T19:07:57.986Z,7.99
2023-01-11T19:10:27.717Z,7.99
2023-01-11T19:12:59.134Z,7.99
2023-01-11T19:15:30.699Z,7.96
2023-01-11T19:23:06.648Z,7.91
2023-01-11T19:25:36.197Z,7.86
2023-01-11T19:28:05.230Z,7.87
2023-01-11T19:30:35.344Z,7.86
2023-01-11T19:33:04.566Z,7.85
2023-01-11T19:35:40.917Z,7.86
2023-01-11T19:38:10.817Z,7.84
2023-01-11T19:40:41.280Z,7.82
2023-01-11T19:43:10.996Z,7.85
2023-01-11T19:45:40.300Z,7.88
2023-01-11T19:48:09.482Z,7.87
2023-01-11T19:50:39.976Z,7.86
2023-01-11T19:53:08.462Z,7.89
2023-01-11T19:55:38.810Z,7.92
2023-01-11T19:58:12.553Z,7.92
2023-01-11T20:00:42.845Z,7.93
2023-01-11T20:03:12.563Z,7.93
2023-01-11T20:05:44.097Z,7.94
2023-01-11T20:08:13.139Z,7.90
2023-01-11T20:10:43.095Z,7.92
2023-01-11T20:13:11.603Z,7.95
2023-01-11T20:15:41.251Z,7.91
2023-01-11T20:18:11.370Z,7.93
2023-01-11T20:20:40.889Z,7.93
2023-01-11T20:23:12.463Z,7.94
2023-01-11T20:25:42.076Z,7.97
2023-01-11T20:28:11.131Z,8.01
2023-01-11T20:30:42.009Z,8.02
2023-01-11T20:33:11.567Z,8.02
2023-01-11T20:35:42.646Z,8.02
2023-01-11T20:38:13.526Z,8.03
2023-01-11T20:40:43.037Z,8.05
2023-01-11T20:43:12.824Z,8.05
2023-01-11T20:45:41.816Z,8.07
2023-01-11T20:48:11.035Z,8.09
2023-01-11T20:50:40.547Z,8.12
2023-01-11T20:53:16.854Z,8.14
2023-01-11T20:55:46.370Z,8.08
2023-01-11T20:58:16.563Z,8.09
2023-01-11T21:00:46.185Z,8.09
2023-01-11T21:03:15.853Z,8.09
2023-01-11T21:05:44.741Z,8.10
2023-01-11T21:08:15.257Z,8.10
2023-01-11T21:10:45.429Z,8.08
2023-01-11T21:13:14.402Z,8.07
2023-01-11T21:15:44.204Z,8.11
2023-01-11T21:18:13.947Z,8.10
2023-01-11T21:20:50.948Z,8.12
2023-01-11T21:23:20.728Z,8.09
2023-01-11T21:25:49.145Z,8.12
2023-01-11T21:28:19.986Z,8.11
2023-01-11T21:30:49.935Z,8.14
2023-01-11T21:33:18.598Z,8.16
2023-01-11T21:35:48.511Z,8.11
2023-01-11T21:38:18.837Z,8.16
2023-01-11T21:40:48.961Z,8.18
2023-01-11T21:43:18.133Z,8.17
2023-01-11T21:45:57.414Z,8.14
2023-01-11T21:48:27.191Z,8.16
2023-01-11T21:50:57.418Z,8.15
2023-01-11T21:53:31.788Z,8.13
2023-01-11T21:56:06.862Z,8.16
2023-01-11T21:58:36.755Z,8.17
2023-01-11T22:01:12.886Z,8.18
2023-01-11T22:03:43.307Z,8.18
2023-01-11T22:06:12.298Z,8.20
2023-01-11T22:08:42.334Z,8.19
2023-01-11T22:11:15.336Z,8.17
2023-01-11T22:13:45.650Z,8.17
2023-01-11T22:16:18.557Z,8.17
2023-01-11T22:18:49.897Z,8.14
2023-01-11T22:21:20.912Z,8.15
2023-01-11T22:23:55.317Z,8.18
2023-01-11T22:26:27.840Z,8.18
2023-01-11T22:29:12.939Z,8.18
2023-01-11T22:31:45.541Z,8.19
2023-01-11T22:34:16.004Z,8.19
2023-01-11T22:36:45.922Z,8.19
2023-01-11T22:39:17.098Z,8.18
2023-01-11T22:41:48.260Z,8.20
2023-01-11T22:44:17.980Z,8.18
2023-01-11T22:46:47.533Z,8.18
2023-01-11T22:49:18.085Z,8.15
2023-01-11T22:51:47.572Z,8.18
2023-01-11T22:54:17.812Z,8.15
2023-01-11T22:56:49.692Z,8.15
2023-01-11T22:59:19.482Z,8.17
2023-01-11T23:01:49.728Z,8.17
2023-01-11T23:04:18.694Z,8.16
2023-01-11T23:06:47.964Z,8.16
2023-01-11T23:09:17.579Z,8.16
2023-01-11T23:12:06.245Z,8.16
2023-01-11T23:14:36.353Z,8.10
2023-01-11T23:17:08.232Z,8.09
2023-01-11T23:19:39.889Z,8.16
2023-01-11T23:22:10.867Z,8.16
2023-01-11T23:24:41.661Z,8.17
2023-01-11T23:27:12.201Z,8.12
2023-01-11T23:29:41.808Z,8.19
2023-01-11T23:32:11.270Z,8.21
2023-01-11T23:34:40.824Z,8.16
2023-01-11T23:37:10.266Z,8.19
2023-01-11T23:39:39.707Z,8.21
2023-01-11T23:42:27.718Z,8.18
2023-01-11T23:44:56.981Z,8.21
2023-01-11T23:47:30.035Z,8.21
2023-01-11T23:50:01.435Z,8.21
2023-01-11T23:52:33.974Z,8.24
2023-01-11T23:55:04.056Z,8.23
2023-01-11T23:57:35.533Z,8.20
